(°C)
17°
17°
16°
16°
15°
15°
15°
(°C)
14°
14°
13°
13°
13°
13°
13°
ZSZ
ZSZ
ZSZ
SZ
SZ
SZ
SZ
(km/h)
12-19
11-17
9-15
8-14
7-13
6-12
5-11
(mm)
0
0
0
0
0
0
0
(%)
0
0
0
0
0
0
0

Výška Slnka nad obzorom

/ 17.3°
sun-icon
UV 7
05:42
19:49
Ubúdajúci kosáčik (327°)
04:05
17:30

Správy METAR pre lokalitu San Diego (KSAN)

Čas Podmienky Teplota/
Rosný bod
Vietor Viditeľnosť Počasie Oblaky Tlak Zmeniť Nespracované
VFR 17.8°C / 11.1°C 290º 8kt >10km - Few Clouds 2500ft
Broken Clouds 25000ft
1015 - KSAN 280051Z 29008KT 10SM FEW025 BKN250 18/11 A3000 RMK AO2 SLP157 T01780111
VFR 18.3°C / 11.7°C 310º 8kt >10km - Few Clouds 2500ft
Broken Clouds 25000ft
1016 - KSAN 272351Z 31008KT 10SM FEW025 BKN250 18/12 A3001 RMK AO2 SLP161 T01830117 10200 20178 56013
VFR 18.9°C / 11.7°C 300º 8kt >10km - Few Clouds 2500ft
Broken Clouds 25000ft
1016 - KSAN 272251Z 30008KT 10SM FEW025 BKN250 19/12 A3001 RMK AO2 SLP163 T01890117
VFR 18.9°C / 11.1°C 300º 8kt >10km - Few Clouds 2500ft
Scattered Clouds 25000ft
1017 - KSAN 272151Z 30008KT 10SM FEW025 SCT250 19/11 A3003 RMK AO2 SLP170 T01890111
VFR 18.9°C / 11.7°C 280º variable 240º to 310º 9kt >10km - Clear 1017 - KSAN 272051Z 28009KT 240V310 10SM CLR 19/12 A3005 RMK AO2 SLP174 T01890117 58011
VFR 18.9°C / 11.1°C 260º 7kt Gust 15kt >10km - Few Clouds 2700ft
Scattered Clouds 25000ft
1017 - KSAN 271951Z 26007G15KT 10SM FEW027 SCT250 19/11 A3006 RMK AO2 SLP178 T01890111
MVFR 19.4°C / 11.1°C 310º 6kt >10km - Broken Clouds 3000ft 1018 - KSAN 271851Z 31006KT 10SM BKN030 19/11 A3008 RMK AO2 SLP184 T01940111
MVFR 18.3°C / 10.6°C 280º 8kt >10km - Broken Clouds 3000ft - KSAN 271837Z 28008KT 10SM BKN030 18/11 A3007 RMK AO2 T01830106
MVFR 17.8°C / 11.1°C 320º 3kt >10km - Overcast 2700ft 1018 - KSAN 271751Z 32003KT 10SM OVC027 18/11 A3008 RMK AO2 SLP185 T01780111 10178 20156 51010
MVFR 16.7°C / 11.1°C 280º 4kt >10km - Overcast 2300ft 1018 - KSAN 271651Z 28004KT 10SM OVC023 17/11 A3007 RMK AO2 SLP183 T01670111
MVFR 16.1°C / 11.1°C 300º 5kt >10km - Overcast 2100ft 1018 - KSAN 271551Z 30005KT 10SM OVC021 16/11 A3007 RMK AO2 SLP181 T01610111
MVFR 16.1°C / 11.7°C variable 5kt >10km - Overcast 1800ft 1017 - KSAN 271451Z VRB05KT 10SM OVC018 16/12 A3005 RMK AO2 SLP175 T01610117 51013
MVFR 15.6°C / 11.7°C 270º 7kt >10km - Overcast 1700ft 1017 - KSAN 271351Z 27007KT 10SM OVC017 16/12 A3004 RMK AO2 SLP172 T01560117
MVFR 16.1°C / 12.2°C 270º 6kt >10km - Overcast 1700ft 1016 - KSAN 271251Z 27006KT 10SM OVC017 16/12 A3002 RMK AO2 SLP166 T01610122
MVFR 15.6°C / 12.2°C 320º 4kt >10km - Overcast 1800ft 1016 - KSAN 271151Z 32004KT 10SM OVC018 16/12 A3001 RMK AO2 SLP162 T01560122 10161 20156 55002
MVFR 16.1°C / 11.7°C variable 0kt >10km - Overcast 1900ft 1016 - KSAN 271051Z 00000KT 10SM OVC019 16/12 A3001 RMK AO2 SLP161 T01610117
MVFR 16.1°C / 11.7°C 290º 3kt >10km - Overcast 1800ft 1016 - KSAN 270951Z 29003KT 10SM OVC018 16/12 A3001 RMK AO2 SLP162 T01610117
MVFR 16.1°C / 12.2°C variable 3kt >10km - Overcast 1900ft 1016 - KSAN 270851Z VRB03KT 10SM OVC019 16/12 A3002 RMK AO2 SLP164 T01610122 58009
MVFR 16.1°C / 12.2°C variable 0kt >10km - Overcast 1900ft 1016 - KSAN 270751Z 00000KT 10SM OVC019 16/12 A3003 RMK AO2 SLP167 T01610122 401890156
MVFR 16.1°C / 11.7°C 280º 5kt >10km - Overcast 1900ft 1017 - KSAN 270651Z 28005KT 10SM OVC019 16/12 A3004 RMK AO2 SLP172 T01610117
MVFR 16.1°C / 11.7°C 300º 5kt >10km - Overcast 2000ft 1017 - KSAN 270551Z 30005KT 10SM OVC020 16/12 A3004 RMK AO2 SLP173 T01610117 10178 20161 51014
MVFR 16.1°C / 11.7°C 310º 4kt >10km - Overcast 2000ft 1017 - KSAN 270451Z 31004KT 10SM OVC020 16/12 A3004 RMK AO2 SLP172 T01610117
MVFR 16.1°C / 11.7°C 300º 5kt >10km - Overcast 1900ft 1016 - KSAN 270351Z 30005KT 10SM OVC019 16/12 A3002 RMK AO2 SLP165 T01610117
MVFR 16.1°C / 11.7°C 300º 6kt >10km - Overcast 2000ft 1016 - KSAN 270251Z 30006KT 10SM OVC020 16/12 A3000 RMK AO2 SLP160 T01610117 53002

VFR

17.8°C / 11.1°C

[Viac]
Vietor 290º 8kt
Viditeľnosť >10km
Počasie -
Oblaky Few Clouds 2500ft
Broken Clouds 25000ft
Tlak 1015
Zmeniť -
Nespracované KSAN 280051Z 29008KT 10SM FEW025 BKN250 18/11 A3000 RMK AO2 SLP157 T01780111

VFR

18.3°C / 11.7°C

[Viac]
Vietor 310º 8kt
Viditeľnosť >10km
Počasie -
Oblaky Few Clouds 2500ft
Broken Clouds 25000ft
Tlak 1016
Zmeniť -
Nespracované KSAN 272351Z 31008KT 10SM FEW025 BKN250 18/12 A3001 RMK AO2 SLP161 T01830117 10200 20178 56013

VFR

18.9°C / 11.7°C

[Viac]
Vietor 300º 8kt
Viditeľnosť >10km
Počasie -
Oblaky Few Clouds 2500ft
Broken Clouds 25000ft
Tlak 1016
Zmeniť -
Nespracované KSAN 272251Z 30008KT 10SM FEW025 BKN250 19/12 A3001 RMK AO2 SLP163 T01890117

VFR

18.9°C / 11.1°C

[Viac]
Vietor 300º 8kt
Viditeľnosť >10km
Počasie -
Oblaky Few Clouds 2500ft
Scattered Clouds 25000ft
Tlak 1017
Zmeniť -
Nespracované KSAN 272151Z 30008KT 10SM FEW025 SCT250 19/11 A3003 RMK AO2 SLP170 T01890111

VFR

18.9°C / 11.7°C

[Viac]
Vietor 280º variable 240º to 310º 9kt
Viditeľnosť >10km
Počasie -
Oblaky Clear
Tlak 1017
Zmeniť -
Nespracované KSAN 272051Z 28009KT 240V310 10SM CLR 19/12 A3005 RMK AO2 SLP174 T01890117 58011

VFR

18.9°C / 11.1°C

[Viac]
Vietor 260º 7kt Gust 15kt
Viditeľnosť >10km
Počasie -
Oblaky Few Clouds 2700ft
Scattered Clouds 25000ft
Tlak 1017
Zmeniť -
Nespracované KSAN 271951Z 26007G15KT 10SM FEW027 SCT250 19/11 A3006 RMK AO2 SLP178 T01890111

MVFR

19.4°C / 11.1°C

[Viac]
Vietor 310º 6kt
Viditeľnosť >10km
Počasie -
Oblaky Broken Clouds 3000ft
Tlak 1018
Zmeniť -
Nespracované KSAN 271851Z 31006KT 10SM BKN030 19/11 A3008 RMK AO2 SLP184 T01940111

MVFR

18.3°C / 10.6°C

[Viac]
Vietor 280º 8kt
Viditeľnosť >10km
Počasie -
Oblaky Broken Clouds 3000ft
Tlak
Zmeniť -
Nespracované KSAN 271837Z 28008KT 10SM BKN030 18/11 A3007 RMK AO2 T01830106

MVFR

17.8°C / 11.1°C

[Viac]
Vietor 320º 3kt
Viditeľnosť >10km
Počasie -
Oblaky Overcast 2700ft
Tlak 1018
Zmeniť -
Nespracované KSAN 271751Z 32003KT 10SM OVC027 18/11 A3008 RMK AO2 SLP185 T01780111 10178 20156 51010

MVFR

16.7°C / 11.1°C

[Viac]
Vietor 280º 4kt
Viditeľnosť >10km
Počasie -
Oblaky Overcast 2300ft
Tlak 1018
Zmeniť -
Nespracované KSAN 271651Z 28004KT 10SM OVC023 17/11 A3007 RMK AO2 SLP183 T01670111

MVFR

16.1°C / 11.1°C

[Viac]
Vietor 300º 5kt
Viditeľnosť >10km
Počasie -
Oblaky Overcast 2100ft
Tlak 1018
Zmeniť -
Nespracované KSAN 271551Z 30005KT 10SM OVC021 16/11 A3007 RMK AO2 SLP181 T01610111

MVFR

16.1°C / 11.7°C

[Viac]
Vietor variable 5kt
Viditeľnosť >10km
Počasie -
Oblaky Overcast 1800ft
Tlak 1017
Zmeniť -
Nespracované KSAN 271451Z VRB05KT 10SM OVC018 16/12 A3005 RMK AO2 SLP175 T01610117 51013

MVFR

15.6°C / 11.7°C

[Viac]
Vietor 270º 7kt
Viditeľnosť >10km
Počasie -
Oblaky Overcast 1700ft
Tlak 1017
Zmeniť -
Nespracované KSAN 271351Z 27007KT 10SM OVC017 16/12 A3004 RMK AO2 SLP172 T01560117

MVFR

16.1°C / 12.2°C

[Viac]
Vietor 270º 6kt
Viditeľnosť >10km
Počasie -
Oblaky Overcast 1700ft
Tlak 1016
Zmeniť -
Nespracované KSAN 271251Z 27006KT 10SM OVC017 16/12 A3002 RMK AO2 SLP166 T01610122

MVFR

15.6°C / 12.2°C

[Viac]
Vietor 320º 4kt
Viditeľnosť >10km
Počasie -
Oblaky Overcast 1800ft
Tlak 1016
Zmeniť -
Nespracované KSAN 271151Z 32004KT 10SM OVC018 16/12 A3001 RMK AO2 SLP162 T01560122 10161 20156 55002

MVFR

16.1°C / 11.7°C

[Viac]
Vietor variable 0kt
Viditeľnosť >10km
Počasie -
Oblaky Overcast 1900ft
Tlak 1016
Zmeniť -
Nespracované KSAN 271051Z 00000KT 10SM OVC019 16/12 A3001 RMK AO2 SLP161 T01610117

MVFR

16.1°C / 11.7°C

[Viac]
Vietor 290º 3kt
Viditeľnosť >10km
Počasie -
Oblaky Overcast 1800ft
Tlak 1016
Zmeniť -
Nespracované KSAN 270951Z 29003KT 10SM OVC018 16/12 A3001 RMK AO2 SLP162 T01610117

MVFR

16.1°C / 12.2°C

[Viac]
Vietor variable 3kt
Viditeľnosť >10km
Počasie -
Oblaky Overcast 1900ft
Tlak 1016
Zmeniť -
Nespracované KSAN 270851Z VRB03KT 10SM OVC019 16/12 A3002 RMK AO2 SLP164 T01610122 58009

MVFR

16.1°C / 12.2°C

[Viac]
Vietor variable 0kt
Viditeľnosť >10km
Počasie -
Oblaky Overcast 1900ft
Tlak 1016
Zmeniť -
Nespracované KSAN 270751Z 00000KT 10SM OVC019 16/12 A3003 RMK AO2 SLP167 T01610122 401890156

MVFR

16.1°C / 11.7°C

[Viac]
Vietor 280º 5kt
Viditeľnosť >10km
Počasie -
Oblaky Overcast 1900ft
Tlak 1017
Zmeniť -
Nespracované KSAN 270651Z 28005KT 10SM OVC019 16/12 A3004 RMK AO2 SLP172 T01610117

MVFR

16.1°C / 11.7°C

[Viac]
Vietor 300º 5kt
Viditeľnosť >10km
Počasie -
Oblaky Overcast 2000ft
Tlak 1017
Zmeniť -
Nespracované KSAN 270551Z 30005KT 10SM OVC020 16/12 A3004 RMK AO2 SLP173 T01610117 10178 20161 51014

MVFR

16.1°C / 11.7°C

[Viac]
Vietor 310º 4kt
Viditeľnosť >10km
Počasie -
Oblaky Overcast 2000ft
Tlak 1017
Zmeniť -
Nespracované KSAN 270451Z 31004KT 10SM OVC020 16/12 A3004 RMK AO2 SLP172 T01610117

MVFR

16.1°C / 11.7°C

[Viac]
Vietor 300º 5kt
Viditeľnosť >10km
Počasie -
Oblaky Overcast 1900ft
Tlak 1016
Zmeniť -
Nespracované KSAN 270351Z 30005KT 10SM OVC019 16/12 A3002 RMK AO2 SLP165 T01610117

MVFR

16.1°C / 11.7°C

[Viac]
Vietor 300º 6kt
Viditeľnosť >10km
Počasie -
Oblaky Overcast 2000ft
Tlak 1016
Zmeniť -
Nespracované KSAN 270251Z 30006KT 10SM OVC020 16/12 A3000 RMK AO2 SLP160 T01610117 53002

Správy TAF pre lokalitu San Diego (KSAN)

From till


From till Wind 300º 8kt. Visibility 10km or more. Few Clouds 2500ft. Broken Clouds 25000ft.
From till Wind 300º 5kt. Visibility 10km or more. Broken Clouds 2300ft. Broken Clouds 25000ft.
From till Wind variable 4kt. Visibility 10km or more. Overcast 2000ft.
From till Wind 220º 9kt. Visibility 10km or more. Broken Clouds 2500ft.
From till Wind 220º 6kt. Visibility 10km or more. Overcast 2200ft.

Nespracované: KSAN 272332Z 2800/2906 30008KT P6SM FEW025 BKN250 FM280400 30005KT P6SM BKN023 BKN250 FM280600 VRB04KT P6SM OVC020 FM281800 22009KT P6SM BKN025 FM290200 22006KT P6SM OVC022

Radar a krátkodobá predpoveď zrážok pre San Diego

Mrholenie
Slabý
Mierne
Ťažké
Veľmi ťažké
Krúpy

Značka polohy je umiestnená na San Diego. Táto animácia ukazuje zrážky pozorované radarom za poslednú hodinu a tiež 1h predpoveď. Mrholenie alebo slabé sneženie môže byť pre radar neviditeľné. Intenzita zrážok je farebne označená od svetlomodrej po oranžovú.

Aktuálne satelitné snímky pre lokalitu San Diego, Spojené štáty americké

Značka polohy je umiestnená naSan Diego. [Viac]

Satelitné snímky zhotovované v reálnom čase využívajú viditeľné svetlo počas dňa a infračervené žiarenie počas noci. Vzhľadom na to, že infračervené žiarenie zisťuje teplotné rozdiely, snímka v noci nie je tmavá. Nízke oblaky a hmlu je, žiaľ, ťažké odlíšiť od prízemných teplôt, preto môžu byť počas noci takmer neviditeľné. Meteosat satelitné snímky pre Európu sú aktualizované v reálnom čase každých 5 minút. Snímky z GOES-16/GOES-17 (Severná a Južná Amerika) a Himawari (Ázia) sú aktualizované každých 10 minút.

Späť nahor